Impacts METAR Board
IDs:

KPIT - Pittsburgh Intl, PA, US

Updated at: 1300 UTC 27 Feb 2021
Potential Impact None Slight Moderate High
Time 27/01Z 27/02Z 27/03Z 27/04Z 27/05Z 27/06Z 27/07Z 27/08Z 27/09Z 27/10Z 27/11Z 27/12Z 27/13Z
Temp41 42 43 43 41 41 40 39 39 40 41 42 42
Dewpt22 23 28 30 31 32 32 32 32 33 33 33 34
Altim30.12 30.10 30.11 30.09 30.07 30.06 30.04 30.01 29.97 29.95 29.95 29.93 29.94
VIS10 10 10 10 10 10 10 10 10 10 10 10 10
CIG110 95 65 55 29 34 31 50 30 26 24 21 18
CoverOVCOVCOVCOVCOVCOVCOVCOVCOVCOVCOVCOVCOVC
FltCatVFRVFRVFRVFRMVFRVFRVFRVFRMVFRMVFRMVFRMVFRMVFR
WX-------------------------RA
WDir1301301601501401401301401301300140170
WSpd9 8 9 9 11 9 8 6 7 7 3 9 6
WGst-- -- -- -- -- -- -- -- -- -- -- -- --
Raw hourly METARs
KPIT 270051Z 13009KT 10SM FEW037 OVC110 05/M06 A3012 RMK AO2 SLP218 T00501056
KPIT 270151Z 13008KT 10SM FEW037 OVC095 06/M05 A3010 RMK AO2 SLP211 T00561050
KPIT 270251Z 16009KT 10SM FEW035 BKN065 OVC100 06/M02 A3011 RMK AO2 SLP211 T00611022 55013
KPIT 270351Z 15009KT 10SM FEW033 OVC055 06/M01 A3009 RMK AO2 SLP204 T00611011
KPIT 270451Z 14011KT 10SM BKN029 OVC035 05/M01 A3007 RMK AO2 SLP197 T00501006 400611050
KPIT 270551Z 14009KT 10SM OVC034 05/00 A3006 RMK AO2 SLP195 T00500000 10061 20044 56015
KPIT 270651Z 13008KT 10SM BKN031 BKN045 OVC060 04/00 A3004 RMK AO2 SLP187 T00440000
KPIT 270751Z 14006KT 10SM FEW035 BKN050 OVC110 04/00 A3001 RMK AO2 SLP179 T00390000
KPIT 270851Z 13007KT 10SM BKN030 BKN055 OVC130 04/00 A2997 RMK AO2 PRESFR SLP163 T00390000 58031
KPIT 270951Z 13007KT 10SM BKN026 OVC130 04/01 A2995 RMK AO2 SLP154 T00440006
KPIT 271051Z VRB03KT 10SM OVC024 05/01 A2995 RMK AO2 SLP157 T00500006
KPIT 271151Z 14009KT 10SM OVC021 06/01 A2993 RMK AO2 SLP150 T00560006 10056 20033 56011
KPIT 271251Z 17006KT 10SM -RA OVC018 06/01 A2994 RMK AO2 RAB49 SLP154 P0000 T00560011



Page loaded:  13:35 UTC  |   05:35 AM Pacific  |   06:35 AM Mountain  |   07:35 AM Central  |   08:35 AM Eastern

 

ADVISORIES

FORECASTS

FORECASTS

OBSERVATIONS

USER TOOLS

ABOUT US